M/V Eugenie J. Huger — WDG4974 — position and weather

sailwx.info

Track history (hours):
 
Tides and Currents Weather Stations Pressure Air Temp Water Temp Dewpoint Dewpoint Depression Visibility Wind Speed Wind Dir Waves Ship Positions

M/V Eugenie J. Huger

Owner: Canal Barge Company, Inc, Belle Chasse, LA. More information available from US FCC via Universal Licensing System and Coast Guard Vessel Documentation Center.

Last reported at 2017-Nov-14 10:23 UTC. Time now 2017-Nov-21 15:43 UTC.
Position N 29°51' W 091°56'.

Type: Towing. MMSI: 367541980.

Date/timePositionNaut miles runAvg speedWind from/ knotsBaromVisibWave heightAir tempDewpointWater temp
2017-Nov-14 10:23N 29°51' W 091°56'2 4.4
2017-Nov-14 10:00N 29°50' W 091°58'2 4.6
2017-Nov-14 09:29N 29°50' W 092°00'2 4.6
2017-Nov-14 08:57N 29°49' W 092°03'2 4.7
2017-Nov-14 08:29N 29°48' W 092°05'3 4.9
2017-Nov-14 07:54N 29°47' W 092°08'2 4.4
2017-Nov-14 07:29N 29°47' W 092°10'2 3.7
2017-Nov-14 06:59N 29°47' W 092°12'1 1.6
2017-Nov-14 06:29N 29°47' W 092°13'1 0.9
2017-Nov-14 05:43N 29°48' W 092°14'0 0.0
2017-Nov-14 05:19N 29°48' W 092°14'0 0.0
2017-Nov-14 04:59N 29°48' W 092°14'0 0.0
2017-Nov-14 04:29N 29°48' W 092°14'0 1.0
2017-Nov-14 03:59N 29°48' W 092°14'1 2.1
2017-Nov-14 03:23N 29°48' W 092°16'1 1.9
2017-Nov-14 02:58N 29°49' W 092°17'1 2.7
2017-Nov-14 02:29N 29°50' W 092°18'1 2.6
2017-Nov-14 02:00N 29°50' W 092°19'2 4.1
2017-Nov-14 01:30N 29°51' W 092°21'2 3.5
2017-Nov-14 01:00N 29°52' W 092°23'1 2.7
2017-Nov-14 00:30N 29°53' W 092°24'109 2.8
2017-Nov-12 10:08N 29°34' W 094°27'1 4.4
2017-Nov-12 09:55N 29°33' W 094°28'15 3.1
2017-Nov-12 05:05N 29°26' W 094°43'0 0.1
2017-Nov-12 05:00N 29°26' W 094°43'0 0.3
2017-Nov-12 04:26N 29°26' W 094°43'0 0.7
2017-Nov-12 04:00N 29°25' W 094°43'0 0.0
2017-Nov-12 03:31N 29°25' W 094°43'9 2.7
2017-Nov-12 00:07N 29°30' W 094°52'1 5.7
2017-Nov-11 23:58N 29°31' W 094°53'3 5.7
2017-Nov-11 23:31N 29°33' W 094°55'3 6.3
2017-Nov-11 23:00N 29°36' W 094°57'3 5.9
2017-Nov-11 22:31N 29°38' W 094°58'3 6.1
2017-Nov-11 22:00N 29°41' W 094°59'3 5.3
2017-Nov-11 21:30N 29°43' W 095°01'3 5.1
2017-Nov-11 20:59N 29°45' W 095°04'3 1.2
2017-Nov-11 18:41N 29°47' W 095°04'2 0.4
2017-Nov-11 14:33N 29°46' W 095°05'0 2.8
2017-Nov-11 14:28N 29°46' W 095°05'2 5.1
2017-Nov-11 14:00N 29°44' W 095°03'2 4.8
2017-Nov-11 13:31N 29°42' W 095°01'3 5.4
2017-Nov-11 13:00N 29°40' W 094°59'3 6.0
2017-Nov-11 12:30N 29°38' W 094°58'3 5.8
2017-Nov-11 12:01N 29°35' W 094°56'3 6.0
2017-Nov-11 11:31N 29°33' W 094°54'3 6.1
2017-Nov-11 10:57N 29°30' W 094°52'67 3.2
2017-Nov-10 14:01N 30°02' W 093°44'0 3.4
2017-Nov-10 14:00N 30°02' W 093°44'10 3.3
2017-Nov-10 11:04N 30°04' W 093°33'0 3.9
2017-Nov-10 10:58N 30°04' W 093°33'2 3.9
2017-Nov-10 10:30N 30°04' W 093°31'2 3.9
2017-Nov-10 10:00N 30°04' W 093°28'2 4.0
2017-Nov-10 09:30N 30°04' W 093°26'2 3.5
2017-Nov-10 09:00N 30°04' W 093°24'2 4.1
2017-Nov-10 08:30N 30°04' W 093°22'2 3.9
2017-Nov-10 08:00N 30°05' W 093°20'2 3.1
2017-Nov-10 07:30N 30°06' W 093°19'0 0.0
2017-Nov-10 07:00N 30°06' W 093°19'0 0.1
2017-Nov-10 06:30N 30°06' W 093°19'0 0.1
2017-Nov-10 06:00N 30°06' W 093°19'1 2.6
2017-Nov-10 05:31N 30°05' W 093°18'1 1.8
2017-Nov-10 05:00N 30°05' W 093°17'1 1.8
2017-Nov-10 04:30N 30°04' W 093°16'1 2.6
2017-Nov-10 04:01N 30°03' W 093°16'1 2.7
2017-Nov-10 03:31N 30°02' W 093°15'1 2.5
2017-Nov-10 03:00N 30°01' W 093°14'2 3.3
2017-Nov-10 02:31N 29°59' W 093°13'2 3.9
2017-Nov-10 02:00N 29°58' W 093°11'2 4.0
2017-Nov-10 01:30N 29°56' W 093°10'2 3.2
2017-Nov-10 01:00N 29°56' W 093°08'1 3.1
2017-Nov-10 00:31N 29°56' W 093°06'2 3.7
2017-Nov-10 00:00N 29°56' W 093°04'2 4.0
2017-Nov-09 23:30N 29°56' W 093°02'32 3.7
2017-Nov-09 14:51N 29°53' W 092°25'3 3.5
2017-Nov-09 13:54N 29°51' W 092°22'1 3.6
2017-Nov-09 13:30N 29°51' W 092°20'2 3.7
2017-Nov-09 13:00N 29°50' W 092°18'1 2.8
2017-Nov-09 12:30N 29°49' W 092°17'2 3.8
2017-Nov-09 12:00N 29°48' W 092°15'2 4.0
2017-Nov-09 11:31N 29°47' W 092°13'2 3.2
2017-Nov-09 11:01N 29°47' W 092°11'1 1.1
2017-Nov-09 10:31N 29°47' W 092°11'0 0.0
2017-Nov-09 10:01N 29°47' W 092°11'1 2.2
2017-Nov-09 09:31N 29°47' W 092°10'2 4.0
2017-Nov-09 09:01N 29°47' W 092°07'2 3.8
2017-Nov-09 08:31N 29°48' W 092°05'2 3.7
2017-Nov-09 08:01N 29°49' W 092°03'2 3.9
2017-Nov-09 07:30N 29°49' W 092°01'2 4.2
2017-Nov-09 07:00N 29°50' W 091°59'3 3.9
2017-Nov-09 06:22N 29°51' W 091°56'2 4.5
2017-Nov-09 06:00N 29°51' W 091°54'4 4.4
2017-Nov-09 05:05N 29°50' W 091°50'1 4.5
2017-Nov-09 04:49N 29°49' W 091°49'  
2017-Nov-05 09:31N 29°50' W 091°57'1 4.1
2017-Nov-05 09:24N 29°50' W 091°58'2 4.1
2017-Nov-05 09:00N 29°50' W 091°59'2 4.1
2017-Nov-05 08:30N 29°49' W 092°02'2 4.0
2017-Nov-05 08:01N 29°49' W 092°04'2 3.9
2017-Nov-05 07:30N 29°48' W 092°06'2 4.0
2017-Nov-05 07:00N 29°47' W 092°08'2 4.0
2017-Nov-05 06:31N 29°47' W 092°10'2 3.7
2017-Nov-05 06:01N 29°47' W 092°12'1 1.0
2017-Nov-05 05:30N 29°47' W 092°13'1 2.1
2017-Nov-05 05:01N 29°48' W 092°14'1 1.4
2017-Nov-05 04:30N 29°48' W 092°15'2 3.2
2017-Nov-05 04:00N 29°49' W 092°16'2 3.4
2017-Nov-05 03:31N 29°50' W 092°18'2 3.6
2017-Nov-05 03:01N 29°50' W 092°20'2 3.3
2017-Nov-05 02:30N 29°51' W 092°21'3 3.7
2017-Nov-05 01:46N 29°53' W 092°23'1 3.9
2017-Nov-05 01:30N 29°53' W 092°25'2 3.9
2017-Nov-05 01:00N 29°54' W 092°27'30 3.7
2017-Nov-04 16:55N 29°56' W 093°02'2 3.9
2017-Nov-04 16:30N 29°56' W 093°03'2 3.5
2017-Nov-04 16:01N 29°56' W 093°05'1 2.3
2017-Nov-04 15:30N 29°56' W 093°07'1 2.3
2017-Nov-04 15:01N 29°56' W 093°08'0 0.0
2017-Nov-04 14:31N 29°56' W 093°08'0 0.0
2017-Nov-04 14:00N 29°56' W 093°08'0 0.0
2017-Nov-04 13:30N 29°56' W 093°08'0 0.0
2017-Nov-04 13:00N 29°56' W 093°08'0 0.0
2017-Nov-04 12:29N 29°56' W 093°08'0 0.0
2017-Nov-04 11:56N 29°56' W 093°08'0 0.0
2017-Nov-04 11:30N 29°56' W 093°08'0 0.0
2017-Nov-04 11:00N 29°56' W 093°08'0 0.0
2017-Nov-04 10:30N 29°56' W 093°08'  
Track history (hours):
 
Tides and Currents Weather Stations Pressure Air Temp Water Temp Dewpoint Dewpoint Depression Visibility Wind Speed Wind Dir Waves Ship Positions

M/V Eugenie J. Huger

Owner: Canal Barge Company, Inc, Belle Chasse, LA. More information available from US FCC via Universal Licensing System and Coast Guard Vessel Documentation Center.

Last reported at 2017-Nov-14 10:23 UTC. Time now 2017-Nov-21 15:43 UTC.
Position N 29°51' W 091°56'.

Type: Towing. MMSI: 367541980.

Date/timePositionNaut miles runAvg speedWind from/ knotsBaromVisibWave heightAir tempDewpointWater temp
2017-Nov-14 10:23N 29°51' W 091°56'2 4.4
2017-Nov-14 10:00N 29°50' W 091°58'2 4.6
2017-Nov-14 09:29N 29°50' W 092°00'2 4.6
2017-Nov-14 08:57N 29°49' W 092°03'2 4.7
2017-Nov-14 08:29N 29°48' W 092°05'3 4.9
2017-Nov-14 07:54N 29°47' W 092°08'2 4.4
2017-Nov-14 07:29N 29°47' W 092°10'2 3.7
2017-Nov-14 06:59N 29°47' W 092°12'1 1.6
2017-Nov-14 06:29N 29°47' W 092°13'1 0.9
2017-Nov-14 05:43N 29°48' W 092°14'0 0.0
2017-Nov-14 05:19N 29°48' W 092°14'0 0.0
2017-Nov-14 04:59N 29°48' W 092°14'0 0.0
2017-Nov-14 04:29N 29°48' W 092°14'0 1.0
2017-Nov-14 03:59N 29°48' W 092°14'1 2.1
2017-Nov-14 03:23N 29°48' W 092°16'1 1.9
2017-Nov-14 02:58N 29°49' W 092°17'1 2.7
2017-Nov-14 02:29N 29°50' W 092°18'1 2.6
2017-Nov-14 02:00N 29°50' W 092°19'2 4.1
2017-Nov-14 01:30N 29°51' W 092°21'2 3.5
2017-Nov-14 01:00N 29°52' W 092°23'1 2.7
2017-Nov-14 00:30N 29°53' W 092°24'109 2.8
2017-Nov-12 10:08N 29°34' W 094°27'1 4.4
2017-Nov-12 09:55N 29°33' W 094°28'15 3.1
2017-Nov-12 05:05N 29°26' W 094°43'0 0.1
2017-Nov-12 05:00N 29°26' W 094°43'0 0.3
2017-Nov-12 04:26N 29°26' W 094°43'0 0.7
2017-Nov-12 04:00N 29°25' W 094°43'0 0.0
2017-Nov-12 03:31N 29°25' W 094°43'9 2.7
2017-Nov-12 00:07N 29°30' W 094°52'1 5.7
2017-Nov-11 23:58N 29°31' W 094°53'3 5.7
2017-Nov-11 23:31N 29°33' W 094°55'3 6.3
2017-Nov-11 23:00N 29°36' W 094°57'3 5.9
2017-Nov-11 22:31N 29°38' W 094°58'3 6.1
2017-Nov-11 22:00N 29°41' W 094°59'3 5.3
2017-Nov-11 21:30N 29°43' W 095°01'3 5.1
2017-Nov-11 20:59N 29°45' W 095°04'3 1.2
2017-Nov-11 18:41N 29°47' W 095°04'2 0.4
2017-Nov-11 14:33N 29°46' W 095°05'0 2.8
2017-Nov-11 14:28N 29°46' W 095°05'2 5.1
2017-Nov-11 14:00N 29°44' W 095°03'2 4.8
2017-Nov-11 13:31N 29°42' W 095°01'3 5.4
2017-Nov-11 13:00N 29°40' W 094°59'3 6.0
2017-Nov-11 12:30N 29°38' W 094°58'3 5.8
2017-Nov-11 12:01N 29°35' W 094°56'3 6.0
2017-Nov-11 11:31N 29°33' W 094°54'3 6.1
2017-Nov-11 10:57N 29°30' W 094°52'67 3.2
2017-Nov-10 14:01N 30°02' W 093°44'0 3.4
2017-Nov-10 14:00N 30°02' W 093°44'10 3.3
2017-Nov-10 11:04N 30°04' W 093°33'0 3.9
2017-Nov-10 10:58N 30°04' W 093°33'2 3.9
2017-Nov-10 10:30N 30°04' W 093°31'2 3.9
2017-Nov-10 10:00N 30°04' W 093°28'2 4.0
2017-Nov-10 09:30N 30°04' W 093°26'2 3.5
2017-Nov-10 09:00N 30°04' W 093°24'2 4.1
2017-Nov-10 08:30N 30°04' W 093°22'2 3.9
2017-Nov-10 08:00N 30°05' W 093°20'2 3.1
2017-Nov-10 07:30N 30°06' W 093°19'0 0.0
2017-Nov-10 07:00N 30°06' W 093°19'0 0.1
2017-Nov-10 06:30N 30°06' W 093°19'0 0.1
2017-Nov-10 06:00N 30°06' W 093°19'1 2.6
2017-Nov-10 05:31N 30°05' W 093°18'1 1.8
2017-Nov-10 05:00N 30°05' W 093°17'1 1.8
2017-Nov-10 04:30N 30°04' W 093°16'1 2.6
2017-Nov-10 04:01N 30°03' W 093°16'1 2.7
2017-Nov-10 03:31N 30°02' W 093°15'1 2.5
2017-Nov-10 03:00N 30°01' W 093°14'2 3.3
2017-Nov-10 02:31N 29°59' W 093°13'2 3.9
2017-Nov-10 02:00N 29°58' W 093°11'2 4.0
2017-Nov-10 01:30N 29°56' W 093°10'2 3.2
2017-Nov-10 01:00N 29°56' W 093°08'1 3.1
2017-Nov-10 00:31N 29°56' W 093°06'2 3.7
2017-Nov-10 00:00N 29°56' W 093°04'2 4.0
2017-Nov-09 23:30N 29°56' W 093°02'32 3.7
2017-Nov-09 14:51N 29°53' W 092°25'3 3.5
2017-Nov-09 13:54N 29°51' W 092°22'1 3.6
2017-Nov-09 13:30N 29°51' W 092°20'2 3.7
2017-Nov-09 13:00N 29°50' W 092°18'1 2.8
2017-Nov-09 12:30N 29°49' W 092°17'2 3.8
2017-Nov-09 12:00N 29°48' W 092°15'2 4.0
2017-Nov-09 11:31N 29°47' W 092°13'2 3.2
2017-Nov-09 11:01N 29°47' W 092°11'1 1.1
2017-Nov-09 10:31N 29°47' W 092°11'0 0.0
2017-Nov-09 10:01N 29°47' W 092°11'1 2.2
2017-Nov-09 09:31N 29°47' W 092°10'2 4.0
2017-Nov-09 09:01N 29°47' W 092°07'2 3.8
2017-Nov-09 08:31N 29°48' W 092°05'2 3.7
2017-Nov-09 08:01N 29°49' W 092°03'2 3.9
2017-Nov-09 07:30N 29°49' W 092°01'2 4.2
2017-Nov-09 07:00N 29°50' W 091°59'3 3.9
2017-Nov-09 06:22N 29°51' W 091°56'2 4.5
2017-Nov-09 06:00N 29°51' W 091°54'4 4.4
2017-Nov-09 05:05N 29°50' W 091°50'1 4.5
2017-Nov-09 04:49N 29°49' W 091°49'  
2017-Nov-05 09:31N 29°50' W 091°57'1 4.1
2017-Nov-05 09:24N 29°50' W 091°58'2 4.1
2017-Nov-05 09:00N 29°50' W 091°59'2 4.1
2017-Nov-05 08:30N 29°49' W 092°02'2 4.0
2017-Nov-05 08:01N 29°49' W 092°04'2 3.9
2017-Nov-05 07:30N 29°48' W 092°06'2 4.0
2017-Nov-05 07:00N 29°47' W 092°08'2 4.0
2017-Nov-05 06:31N 29°47' W 092°10'2 3.7
2017-Nov-05 06:01N 29°47' W 092°12'1 1.0
2017-Nov-05 05:30N 29°47' W 092°13'1 2.1
2017-Nov-05 05:01N 29°48' W 092°14'1 1.4
2017-Nov-05 04:30N 29°48' W 092°15'2 3.2
2017-Nov-05 04:00N 29°49' W 092°16'2 3.4
2017-Nov-05 03:31N 29°50' W 092°18'2 3.6
2017-Nov-05 03:01N 29°50' W 092°20'2 3.3
2017-Nov-05 02:30N 29°51' W 092°21'3 3.7
2017-Nov-05 01:46N 29°53' W 092°23'1 3.9
2017-Nov-05 01:30N 29°53' W 092°25'2 3.9
2017-Nov-05 01:00N 29°54' W 092°27'30 3.7
2017-Nov-04 16:55N 29°56' W 093°02'2 3.9
2017-Nov-04 16:30N 29°56' W 093°03'2 3.5
2017-Nov-04 16:01N 29°56' W 093°05'1 2.3
2017-Nov-04 15:30N 29°56' W 093°07'1 2.3
2017-Nov-04 15:01N 29°56' W 093°08'0 0.0
2017-Nov-04 14:31N 29°56' W 093°08'0 0.0
2017-Nov-04 14:00N 29°56' W 093°08'0 0.0
2017-Nov-04 13:30N 29°56' W 093°08'0 0.0
2017-Nov-04 13:00N 29°56' W 093°08'0 0.0
2017-Nov-04 12:29N 29°56' W 093°08'0 0.0
2017-Nov-04 11:56N 29°56' W 093°08'0 0.0
2017-Nov-04 11:30N 29°56' W 093°08'0 0.0
2017-Nov-04 11:00N 29°56' W 093°08'0 0.0
2017-Nov-04 10:30N 29°56' W 093°08'  

Dump ship's entire track history